Terminal Aerodrome Forecast
Issued by NWS

Home | Current Version | Previous Version | Text Only | Print | Product List | Glossary On
Versions: 1 2 3 4 5 6 7 8 9 10 11 12 13 14
192
FTUS46 KMTR 261733
TAFSTS
TAF
KSTS 261733Z 2618/2718 18007KT P6SM SCT010 BKN030 OVC050
     FM262000 22013KT P6SM SCT015 BKN030
     FM262300 24011KT P6SM SCT018 BKN040
     FM270200 28009KT P6SM SCT020 SCT035 BKN050
     FM270600 30008KT P6SM BKN015
     FM271400 34006KT P6SM SCT015=

USA.gov is the U.S. government's official web portal to all federal, state and local government web resources and services.